sensor_id;sensor_type;location;lat;lon;timestamp;P1;durP1;ratioP1;P2;durP2;ratioP2
75689;SDS011;64303;53.118;9.044;2022-12-07T00:00:49;20.00;;;11.98;;
75689;SDS011;64303;53.118;9.044;2022-12-07T00:03:17;20.90;;;13.27;;
75689;SDS011;64303;53.118;9.044;2022-12-07T00:05:44;18.10;;;10.38;;
75689;SDS011;64303;53.118;9.044;2022-12-07T00:08:11;17.48;;;11.15;;
75689;SDS011;64303;53.118;9.044;2022-12-07T00:10:37;16.45;;;13.18;;
75689;SDS011;64303;53.118;9.044;2022-12-07T00:13:04;16.67;;;12.40;;
75689;SDS011;64303;53.118;9.044;2022-12-07T00:15:32;18.52;;;12.27;;
75689;SDS011;64303;53.118;9.044;2022-12-07T00:18:00;16.05;;;11.48;;
75689;SDS011;64303;53.118;9.044;2022-12-07T00:20:27;17.90;;;11.10;;
75689;SDS011;64303;53.118;9.044;2022-12-07T00:22:55;17.25;;;10.40;;
75689;SDS011;64303;53.118;9.044;2022-12-07T00:25:22;17.27;;;12.48;;
75689;SDS011;64303;53.118;9.044;2022-12-07T00:27:49;17.98;;;11.02;;
75689;SDS011;64303;53.118;9.044;2022-12-07T00:30:15;15.80;;;11.63;;
75689;SDS011;64303;53.118;9.044;2022-12-07T00:32:42;15.05;;;10.95;;
75689;SDS011;64303;53.118;9.044;2022-12-07T00:35:08;19.02;;;13.15;;
75689;SDS011;64303;53.118;9.044;2022-12-07T00:37:37;17.30;;;11.75;;
75689;SDS011;64303;53.118;9.044;2022-12-07T00:40:04;23.10;;;13.70;;
75689;SDS011;64303;53.118;9.044;2022-12-07T00:42:31;18.42;;;13.40;;
75689;SDS011;64303;53.118;9.044;2022-12-07T00:44:59;17.45;;;12.10;;
75689;SDS011;64303;53.118;9.044;2022-12-07T00:47:26;17.50;;;10.73;;
75689;SDS011;64303;53.118;9.044;2022-12-07T00:49:52;19.55;;;12.82;;
75689;SDS011;64303;53.118;9.044;2022-12-07T00:52:19;14.52;;;11.43;;
75689;SDS011;64303;53.118;9.044;2022-12-07T00:54:47;17.45;;;13.40;;
75689;SDS011;64303;53.118;9.044;2022-12-07T00:57:14;15.80;;;12.00;;
75689;SDS011;64303;53.118;9.044;2022-12-07T00:59:40;13.52;;;11.95;;
75689;SDS011;64303;53.118;9.044;2022-12-07T01:02:07;14.40;;;10.52;;
75689;SDS011;64303;53.118;9.044;2022-12-07T01:04:34;14.02;;;11.25;;
75689;SDS011;64303;53.118;9.044;2022-12-07T01:07:01;13.93;;;10.43;;
75689;SDS011;64303;53.118;9.044;2022-12-07T01:09:27;13.48;;;11.20;;
75689;SDS011;64303;53.118;9.044;2022-12-07T01:11:55;18.00;;;12.38;;
75689;SDS011;64303;53.118;9.044;2022-12-07T01:14:22;15.93;;;9.85;;
75689;SDS011;64303;53.118;9.044;2022-12-07T01:16:48;19.25;;;10.05;;
75689;SDS011;64303;53.118;9.044;2022-12-07T01:19:15;22.17;;;12.68;;
75689;SDS011;64303;53.118;9.044;2022-12-07T01:21:42;16.38;;;10.63;;
75689;SDS011;64303;53.118;9.044;2022-12-07T01:24:09;12.30;;;9.35;;
75689;SDS011;64303;53.118;9.044;2022-12-07T01:26:37;13.65;;;10.13;;
75689;SDS011;64303;53.118;9.044;2022-12-07T01:29:05;12.80;;;9.43;;
75689;SDS011;64303;53.118;9.044;2022-12-07T01:31:32;13.95;;;8.90;;
75689;SDS011;64303;53.118;9.044;2022-12-07T01:33:59;15.20;;;11.68;;
75689;SDS011;64303;53.118;9.044;2022-12-07T01:36:27;20.17;;;11.45;;
75689;SDS011;64303;53.118;9.044;2022-12-07T01:38:55;12.27;;;10.15;;
75689;SDS011;64303;53.118;9.044;2022-12-07T01:41:23;16.10;;;9.45;;
75689;SDS011;64303;53.118;9.044;2022-12-07T01:46:50;9.23;;;5.65;;
75689;SDS011;64303;53.118;9.044;2022-12-07T01:49:20;11.13;;;7.53;;
75689;SDS011;64303;53.118;9.044;2022-12-07T01:51:50;12.40;;;7.75;;
75689;SDS011;64303;53.118;9.044;2022-12-07T01:54:18;10.85;;;7.32;;
75689;SDS011;64303;53.118;9.044;2022-12-07T01:56:48;10.27;;;8.15;;
75689;SDS011;64303;53.118;9.044;2022-12-07T01:59:16;9.98;;;6.90;;
75689;SDS011;64303;53.118;9.044;2022-12-07T02:01:45;10.40;;;9.30;;
75689;SDS011;64303;53.118;9.044;2022-12-07T02:04:12;9.93;;;8.43;;
75689;SDS011;64303;53.118;9.044;2022-12-07T02:06:39;7.80;;;5.88;;
75689;SDS011;64303;53.118;9.044;2022-12-07T02:09:07;12.95;;;7.60;;
75689;SDS011;64303;53.118;9.044;2022-12-07T02:11:33;10.23;;;7.88;;
75689;SDS011;64303;53.118;9.044;2022-12-07T02:14:00;10.57;;;6.47;;
75689;SDS011;64303;53.118;9.044;2022-12-07T02:16:29;8.88;;;6.43;;
75689;SDS011;64303;53.118;9.044;2022-12-07T02:19:06;9.60;;;8.65;;
75689;SDS011;64303;53.118;9.044;2022-12-07T02:21:45;8.68;;;7.93;;
75689;SDS011;64303;53.118;9.044;2022-12-07T02:24:16;10.40;;;9.00;;
75689;SDS011;64303;53.118;9.044;2022-12-07T02:26:55;11.93;;;8.77;;
75689;SDS011;64303;53.118;9.044;2022-12-07T02:29:42;8.20;;;5.63;;
75689;SDS011;64303;53.118;9.044;2022-12-07T02:32:13;8.15;;;7.45;;
75689;SDS011;64303;53.118;9.044;2022-12-07T02:34:44;6.63;;;5.97;;
75689;SDS011;64303;53.118;9.044;2022-12-07T02:37:17;6.82;;;6.18;;
75689;SDS011;64303;53.118;9.044;2022-12-07T02:39:48;8.65;;;5.50;;
75689;SDS011;64303;53.118;9.044;2022-12-07T02:42:19;7.20;;;5.85;;
75689;SDS011;64303;53.118;9.044;2022-12-07T02:44:51;8.63;;;7.63;;
75689;SDS011;64303;53.118;9.044;2022-12-07T02:47:18;8.90;;;6.82;;
75689;SDS011;64303;53.118;9.044;2022-12-07T02:49:46;10.55;;;6.35;;
75689;SDS011;64303;53.118;9.044;2022-12-07T02:52:13;9.02;;;7.47;;
75689;SDS011;64303;53.118;9.044;2022-12-07T02:54:39;7.75;;;5.75;;
75689;SDS011;64303;53.118;9.044;2022-12-07T02:57:11;8.80;;;7.43;;
75689;SDS011;64303;53.118;9.044;2022-12-07T02:59:46;11.00;;;7.70;;
75689;SDS011;64303;53.118;9.044;2022-12-07T03:02:22;9.20;;;7.47;;
75689;SDS011;64303;53.118;9.044;2022-12-07T03:04:53;12.60;;;6.85;;
75689;SDS011;64303;53.118;9.044;2022-12-07T03:07:25;9.93;;;8.02;;
75689;SDS011;64303;53.118;9.044;2022-12-07T03:10:00;8.45;;;6.75;;
75689;SDS011;64303;53.118;9.044;2022-12-07T03:12:29;11.65;;;8.48;;
75689;SDS011;64303;53.118;9.044;2022-12-07T03:15:00;13.68;;;9.57;;
75689;SDS011;64303;53.118;9.044;2022-12-07T03:17:31;9.35;;;8.52;;
75689;SDS011;64303;53.118;9.044;2022-12-07T03:20:00;11.75;;;7.00;;
75689;SDS011;64303;53.118;9.044;2022-12-07T03:22:30;10.50;;;8.02;;
75689;SDS011;64303;53.118;9.044;2022-12-07T03:24:58;9.85;;;8.35;;
75689;SDS011;64303;53.118;9.044;2022-12-07T03:27:28;9.20;;;8.15;;
75689;SDS011;64303;53.118;9.044;2022-12-07T03:29:58;11.63;;;6.97;;
75689;SDS011;64303;53.118;9.044;2022-12-07T03:32:28;7.85;;;7.10;;
75689;SDS011;64303;53.118;9.044;2022-12-07T03:34:58;8.63;;;7.72;;
75689;SDS011;64303;53.118;9.044;2022-12-07T03:37:29;9.88;;;6.82;;
75689;SDS011;64303;53.118;9.044;2022-12-07T03:40:01;8.98;;;6.70;;
75689;SDS011;64303;53.118;9.044;2022-12-07T03:42:31;7.38;;;6.38;;
75689;SDS011;64303;53.118;9.044;2022-12-07T03:44:59;9.55;;;8.55;;
75689;SDS011;64303;53.118;9.044;2022-12-07T03:47:29;7.00;;;5.47;;
75689;SDS011;64303;53.118;9.044;2022-12-07T03:49:59;10.07;;;9.15;;
75689;SDS011;64303;53.118;9.044;2022-12-07T03:52:30;6.68;;;6.07;;
75689;SDS011;64303;53.118;9.044;2022-12-07T03:55:00;12.15;;;8.82;;
75689;SDS011;64303;53.118;9.044;2022-12-07T03:57:29;7.53;;;6.00;;
75689;SDS011;64303;53.118;9.044;2022-12-07T03:59:55;8.35;;;7.07;;
75689;SDS011;64303;53.118;9.044;2022-12-07T04:02:24;6.68;;;6.07;;
75689;SDS011;64303;53.118;9.044;2022-12-07T04:04:51;8.70;;;7.95;;
75689;SDS011;64303;53.118;9.044;2022-12-07T04:07:18;7.85;;;6.90;;
75689;SDS011;64303;53.118;9.044;2022-12-07T04:09:45;7.05;;;6.55;;
75689;SDS011;64303;53.118;9.044;2022-12-07T04:12:12;7.22;;;5.00;;
75689;SDS011;64303;53.118;9.044;2022-12-07T04:14:38;6.53;;;6.03;;
75689;SDS011;64303;53.118;9.044;2022-12-07T04:17:05;6.63;;;5.38;;
75689;SDS011;64303;53.118;9.044;2022-12-07T04:19:33;5.28;;;4.80;;
75689;SDS011;64303;53.118;9.044;2022-12-07T04:22:01;6.97;;;6.18;;
75689;SDS011;64303;53.118;9.044;2022-12-07T04:24:28;7.35;;;6.82;;
75689;SDS011;64303;53.118;9.044;2022-12-07T04:26:56;9.70;;;6.40;;
75689;SDS011;64303;53.118;9.044;2022-12-07T04:29:22;6.43;;;5.10;;
75689;SDS011;64303;53.118;9.044;2022-12-07T04:31:50;7.68;;;6.95;;
75689;SDS011;64303;53.118;9.044;2022-12-07T04:34:17;6.10;;;5.63;;
75689;SDS011;64303;53.118;9.044;2022-12-07T04:36:45;6.20;;;5.75;;
75689;SDS011;64303;53.118;9.044;2022-12-07T04:39:14;6.75;;;6.30;;
75689;SDS011;64303;53.118;9.044;2022-12-07T04:41:45;6.78;;;4.35;;
75689;SDS011;64303;53.118;9.044;2022-12-07T04:44:11;4.10;;;3.67;;
75689;SDS011;64303;53.118;9.044;2022-12-07T04:46:40;7.05;;;6.43;;
75689;SDS011;64303;53.118;9.044;2022-12-07T04:49:07;6.13;;;5.38;;
75689;SDS011;64303;53.118;9.044;2022-12-07T04:51:34;6.10;;;5.60;;
75689;SDS011;64303;53.118;9.044;2022-12-07T04:54:02;7.55;;;5.55;;
75689;SDS011;64303;53.118;9.044;2022-12-07T04:56:29;6.50;;;5.85;;
75689;SDS011;64303;53.118;9.044;2022-12-07T04:58:56;6.28;;;5.68;;
75689;SDS011;64303;53.118;9.044;2022-12-07T05:01:23;7.85;;;6.15;;
75689;SDS011;64303;53.118;9.044;2022-12-07T05:03:50;6.07;;;5.47;;
75689;SDS011;64303;53.118;9.044;2022-12-07T05:06:16;7.85;;;7.25;;
75689;SDS011;64303;53.118;9.044;2022-12-07T05:08:43;7.72;;;6.60;;
75689;SDS011;64303;53.118;9.044;2022-12-07T05:11:12;7.90;;;7.13;;
75689;SDS011;64303;53.118;9.044;2022-12-07T05:13:59;8.57;;;7.63;;
75689;SDS011;64303;53.118;9.044;2022-12-07T05:16:26;8.32;;;7.53;;
75689;SDS011;64303;53.118;9.044;2022-12-07T05:18:52;7.97;;;7.28;;
75689;SDS011;64303;53.118;9.044;2022-12-07T05:21:19;9.25;;;8.35;;
75689;SDS011;64303;53.118;9.044;2022-12-07T05:23:46;6.72;;;5.63;;
75689;SDS011;64303;53.118;9.044;2022-12-07T05:26:14;9.30;;;8.23;;
75689;SDS011;64303;53.118;9.044;2022-12-07T05:28:40;8.70;;;7.47;;
75689;SDS011;64303;53.118;9.044;2022-12-07T05:31:07;8.15;;;6.22;;
75689;SDS011;64303;53.118;9.044;2022-12-07T05:33:34;8.52;;;5.65;;
75689;SDS011;64303;53.118;9.044;2022-12-07T05:36:01;9.43;;;5.53;;
75689;SDS011;64303;53.118;9.044;2022-12-07T05:38:30;8.93;;;7.22;;
75689;SDS011;64303;53.118;9.044;2022-12-07T05:40:59;9.95;;;6.75;;
75689;SDS011;64303;53.118;9.044;2022-12-07T05:43:28;6.80;;;5.32;;
75689;SDS011;64303;53.118;9.044;2022-12-07T05:45:56;5.43;;;4.93;;
75689;SDS011;64303;53.118;9.044;2022-12-07T05:48:22;6.70;;;5.85;;
75689;SDS011;64303;53.118;9.044;2022-12-07T05:50:50;7.50;;;5.18;;
75689;SDS011;64303;53.118;9.044;2022-12-07T05:53:17;7.15;;;6.00;;
75689;SDS011;64303;53.118;9.044;2022-12-07T05:55:44;7.00;;;6.03;;
75689;SDS011;64303;53.118;9.044;2022-12-07T05:58:10;6.22;;;5.65;;
75689;SDS011;64303;53.118;9.044;2022-12-07T06:00:56;7.78;;;6.47;;
75689;SDS011;64303;53.118;9.044;2022-12-07T06:03:23;5.95;;;4.80;;
75689;SDS011;64303;53.118;9.044;2022-12-07T06:05:50;9.35;;;7.00;;
75689;SDS011;64303;53.118;9.044;2022-12-07T06:08:18;9.18;;;5.63;;
75689;SDS011;64303;53.118;9.044;2022-12-07T06:10:46;7.90;;;7.20;;
75689;SDS011;64303;53.118;9.044;2022-12-07T06:13:33;10.05;;;5.75;;
75689;SDS011;64303;53.118;9.044;2022-12-07T06:16:00;6.25;;;5.65;;
75689;SDS011;64303;53.118;9.044;2022-12-07T06:18:27;8.40;;;4.60;;
75689;SDS011;64303;53.118;9.044;2022-12-07T06:20:53;8.00;;;5.70;;
75689;SDS011;64303;53.118;9.044;2022-12-07T06:23:20;5.72;;;4.55;;
75689;SDS011;64303;53.118;9.044;2022-12-07T06:25:47;11.13;;;6.53;;
75689;SDS011;64303;53.118;9.044;2022-12-07T06:28:13;9.48;;;7.90;;
75689;SDS011;64303;53.118;9.044;2022-12-07T06:30:40;6.93;;;5.85;;
75689;SDS011;64303;53.118;9.044;2022-12-07T06:33:08;7.25;;;6.50;;
75689;SDS011;64303;53.118;9.044;2022-12-07T06:35:35;6.82;;;5.90;;
75689;SDS011;64303;53.118;9.044;2022-12-07T06:38:01;6.47;;;5.60;;
75689;SDS011;64303;53.118;9.044;2022-12-07T06:40:28;7.50;;;6.72;;
75689;SDS011;64303;53.118;9.044;2022-12-07T06:42:55;8.80;;;8.20;;
75689;SDS011;64303;53.118;9.044;2022-12-07T06:45:21;6.25;;;5.63;;
75689;SDS011;64303;53.118;9.044;2022-12-07T06:47:48;6.75;;;5.32;;
75689;SDS011;64303;53.118;9.044;2022-12-07T06:50:16;8.00;;;7.18;;
75689;SDS011;64303;53.118;9.044;2022-12-07T06:52:43;6.03;;;5.50;;
75689;SDS011;64303;53.118;9.044;2022-12-07T06:55:09;10.10;;;9.27;;
75689;SDS011;64303;53.118;9.044;2022-12-07T06:57:36;6.10;;;5.40;;
75689;SDS011;64303;53.118;9.044;2022-12-07T07:00:03;6.32;;;5.82;;
75689;SDS011;64303;53.118;9.044;2022-12-07T07:02:31;5.85;;;5.40;;
75689;SDS011;64303;53.118;9.044;2022-12-07T07:04:57;6.80;;;4.25;;
75689;SDS011;64303;53.118;9.044;2022-12-07T07:07:25;6.97;;;6.35;;
75689;SDS011;64303;53.118;9.044;2022-12-07T07:09:52;6.68;;;6.07;;
75689;SDS011;64303;53.118;9.044;2022-12-07T07:12:19;5.85;;;5.45;;
75689;SDS011;64303;53.118;9.044;2022-12-07T07:14:46;8.77;;;8.25;;
75689;SDS011;64303;53.118;9.044;2022-12-07T07:17:12;7.13;;;6.50;;
75689;SDS011;64303;53.118;9.044;2022-12-07T07:19:39;6.97;;;5.75;;
75689;SDS011;64303;53.118;9.044;2022-12-07T07:22:05;10.32;;;5.82;;
75689;SDS011;64303;53.118;9.044;2022-12-07T07:24:33;6.13;;;5.53;;
75689;SDS011;64303;53.118;9.044;2022-12-07T07:27:00;5.10;;;4.72;;
75689;SDS011;64303;53.118;9.044;2022-12-07T07:29:27;7.32;;;5.32;;
75689;SDS011;64303;53.118;9.044;2022-12-07T07:31:53;8.05;;;7.43;;
75689;SDS011;64303;53.118;9.044;2022-12-07T07:34:20;7.45;;;5.85;;
75689;SDS011;64303;53.118;9.044;2022-12-07T07:36:47;6.32;;;5.47;;
75689;SDS011;64303;53.118;9.044;2022-12-07T07:39:13;8.35;;;5.18;;
75689;SDS011;64303;53.118;9.044;2022-12-07T07:41:41;7.35;;;5.82;;
75689;SDS011;64303;53.118;9.044;2022-12-07T07:44:12;6.50;;;5.47;;
75689;SDS011;64303;53.118;9.044;2022-12-07T07:46:39;9.65;;;8.85;;
75689;SDS011;64303;53.118;9.044;2022-12-07T07:49:06;8.27;;;6.43;;
75689;SDS011;64303;53.118;9.044;2022-12-07T07:51:32;6.45;;;5.88;;
75689;SDS011;64303;53.118;9.044;2022-12-07T07:53:59;8.20;;;6.72;;
75689;SDS011;64303;53.118;9.044;2022-12-07T07:56:25;10.68;;;7.10;;
75689;SDS011;64303;53.118;9.044;2022-12-07T07:58:54;10.05;;;5.80;;
75689;SDS011;64303;53.118;9.044;2022-12-07T08:01:21;10.93;;;5.65;;
75689;SDS011;64303;53.118;9.044;2022-12-07T08:03:48;10.27;;;7.72;;
75689;SDS011;64303;53.118;9.044;2022-12-07T08:06:15;6.43;;;5.82;;
75689;SDS011;64303;53.118;9.044;2022-12-07T08:08:42;9.45;;;6.50;;
75689;SDS011;64303;53.118;9.044;2022-12-07T08:11:09;9.13;;;5.53;;
75689;SDS011;64303;53.118;9.044;2022-12-07T08:13:36;8.18;;;5.93;;
75689;SDS011;64303;53.118;9.044;2022-12-07T08:16:04;9.50;;;5.20;;
75689;SDS011;64303;53.118;9.044;2022-12-07T08:18:34;8.95;;;6.63;;
75689;SDS011;64303;53.118;9.044;2022-12-07T08:21:02;10.82;;;7.82;;
75689;SDS011;64303;53.118;9.044;2022-12-07T08:23:29;9.10;;;6.90;;
75689;SDS011;64303;53.118;9.044;2022-12-07T08:25:59;9.15;;;6.50;;
75689;SDS011;64303;53.118;9.044;2022-12-07T08:28:26;8.77;;;5.25;;
75689;SDS011;64303;53.118;9.044;2022-12-07T08:30:58;8.38;;;7.03;;
75689;SDS011;64303;53.118;9.044;2022-12-07T08:33:26;9.98;;;6.20;;
75689;SDS011;64303;53.118;9.044;2022-12-07T08:35:53;7.22;;;5.85;;
75689;SDS011;64303;53.118;9.044;2022-12-07T08:38:20;7.93;;;7.30;;
75689;SDS011;64303;53.118;9.044;2022-12-07T08:40:52;6.97;;;5.95;;
75689;SDS011;64303;53.118;9.044;2022-12-07T08:43:20;8.00;;;7.40;;
75689;SDS011;64303;53.118;9.044;2022-12-07T08:45:46;9.20;;;7.88;;
75689;SDS011;64303;53.118;9.044;2022-12-07T08:48:14;5.70;;;5.00;;
75689;SDS011;64303;53.118;9.044;2022-12-07T08:50:44;6.72;;;6.22;;
75689;SDS011;64303;53.118;9.044;2022-12-07T08:53:11;7.22;;;5.85;;
75689;SDS011;64303;53.118;9.044;2022-12-07T08:55:37;6.45;;;5.95;;
75689;SDS011;64303;53.118;9.044;2022-12-07T08:58:04;5.07;;;4.68;;
75689;SDS011;64303;53.118;9.044;2022-12-07T09:00:31;6.72;;;6.13;;
75689;SDS011;64303;53.118;9.044;2022-12-07T09:02:57;7.45;;;5.07;;
75689;SDS011;64303;53.118;9.044;2022-12-07T09:05:24;8.07;;;6.45;;
75689;SDS011;64303;53.118;9.044;2022-12-07T09:07:54;7.10;;;6.45;;
75689;SDS011;64303;53.118;9.044;2022-12-07T09:10:21;6.38;;;5.88;;
75689;SDS011;64303;53.118;9.044;2022-12-07T09:12:48;9.18;;;6.10;;
75689;SDS011;64303;53.118;9.044;2022-12-07T09:15:15;6.75;;;4.70;;
75689;SDS011;64303;53.118;9.044;2022-12-07T09:17:42;7.13;;;5.40;;
75689;SDS011;64303;53.118;9.044;2022-12-07T09:20:09;8.40;;;7.70;;
75689;SDS011;64303;53.118;9.044;2022-12-07T09:22:36;7.43;;;5.32;;
75689;SDS011;64303;53.118;9.044;2022-12-07T09:25:05;8.20;;;5.50;;
75689;SDS011;64303;53.118;9.044;2022-12-07T09:27:32;5.13;;;4.70;;
75689;SDS011;64303;53.118;9.044;2022-12-07T09:29:59;7.45;;;6.75;;
75689;SDS011;64303;53.118;9.044;2022-12-07T09:32:25;6.75;;;6.15;;
75689;SDS011;64303;53.118;9.044;2022-12-07T09:34:52;8.48;;;6.50;;
75689;SDS011;64303;53.118;9.044;2022-12-07T09:37:19;7.43;;;6.85;;
75689;SDS011;64303;53.118;9.044;2022-12-07T09:39:45;6.55;;;4.28;;
75689;SDS011;64303;53.118;9.044;2022-12-07T09:42:17;6.03;;;4.65;;
75689;SDS011;64303;53.118;9.044;2022-12-07T09:44:52;4.93;;;4.45;;
75689;SDS011;64303;53.118;9.044;2022-12-07T09:47:19;5.78;;;4.55;;
75689;SDS011;64303;53.118;9.044;2022-12-07T09:49:46;4.75;;;4.35;;
75689;SDS011;64303;53.118;9.044;2022-12-07T09:52:17;4.45;;;4.15;;
75689;SDS011;64303;53.118;9.044;2022-12-07T09:54:46;5.72;;;5.15;;
75689;SDS011;64303;53.118;9.044;2022-12-07T09:57:16;4.90;;;4.50;;
75689;SDS011;64303;53.118;9.044;2022-12-07T09:59:42;8.65;;;6.65;;
75689;SDS011;64303;53.118;9.044;2022-12-07T10:02:23;7.28;;;4.50;;
75689;SDS011;64303;53.118;9.044;2022-12-07T10:04:51;5.72;;;4.93;;
75689;SDS011;64303;53.118;9.044;2022-12-07T10:07:18;7.32;;;5.03;;
75689;SDS011;64303;53.118;9.044;2022-12-07T10:09:45;5.93;;;4.57;;
75689;SDS011;64303;53.118;9.044;2022-12-07T10:12:12;6.18;;;5.68;;
75689;SDS011;64303;53.118;9.044;2022-12-07T10:14:48;9.38;;;5.90;;
75689;SDS011;64303;53.118;9.044;2022-12-07T10:17:33;8.00;;;5.80;;
75689;SDS011;64303;53.118;9.044;2022-12-07T10:20:11;6.80;;;6.28;;
75689;SDS011;64303;53.118;9.044;2022-12-07T10:22:50;5.65;;;4.93;;
75689;SDS011;64303;53.118;9.044;2022-12-07T10:25:21;7.75;;;7.15;;
75689;SDS011;64303;53.118;9.044;2022-12-07T10:27:57;5.78;;;4.28;;
75689;SDS011;64303;53.118;9.044;2022-12-07T10:30:25;6.82;;;5.60;;
75689;SDS011;64303;53.118;9.044;2022-12-07T10:32:52;6.03;;;5.38;;
75689;SDS011;64303;53.118;9.044;2022-12-07T10:35:20;7.05;;;4.95;;
75689;SDS011;64303;53.118;9.044;2022-12-07T10:37:49;6.22;;;5.28;;
75689;SDS011;64303;53.118;9.044;2022-12-07T10:40:27;8.18;;;7.43;;
75689;SDS011;64303;53.118;9.044;2022-12-07T10:43:02;10.40;;;6.70;;
75689;SDS011;64303;53.118;9.044;2022-12-07T10:45:31;11.50;;;6.25;;
75689;SDS011;64303;53.118;9.044;2022-12-07T10:50:40;6.80;;;5.93;;
75689;SDS011;64303;53.118;9.044;2022-12-07T10:53:20;11.38;;;8.10;;
75689;SDS011;64303;53.118;9.044;2022-12-07T10:56:01;6.65;;;6.00;;
75689;SDS011;64303;53.118;9.044;2022-12-07T10:58:45;8.18;;;7.45;;
75689;SDS011;64303;53.118;9.044;2022-12-07T11:01:21;7.72;;;7.07;;
75689;SDS011;64303;53.118;9.044;2022-12-07T11:03:53;7.18;;;6.47;;
75689;SDS011;64303;53.118;9.044;2022-12-07T11:06:30;8.85;;;6.68;;
75689;SDS011;64303;53.118;9.044;2022-12-07T11:09:02;7.32;;;5.70;;
75689;SDS011;64303;53.118;9.044;2022-12-07T11:11:35;12.80;;;5.43;;
75689;SDS011;64303;53.118;9.044;2022-12-07T11:14:05;8.48;;;6.47;;
75689;SDS011;64303;53.118;9.044;2022-12-07T11:16:45;9.05;;;7.15;;
75689;SDS011;64303;53.118;9.044;2022-12-07T11:19:34;12.02;;;9.40;;
75689;SDS011;64303;53.118;9.044;2022-12-07T11:22:13;7.65;;;6.78;;
75689;SDS011;64303;53.118;9.044;2022-12-07T11:24:44;6.53;;;5.80;;
75689;SDS011;64303;53.118;9.044;2022-12-07T11:27:19;8.07;;;6.07;;
75689;SDS011;64303;53.118;9.044;2022-12-07T11:29:53;9.38;;;6.53;;
75689;SDS011;64303;53.118;9.044;2022-12-07T11:32:32;7.00;;;5.70;;
75689;SDS011;64303;53.118;9.044;2022-12-07T11:35:11;8.25;;;7.18;;
75689;SDS011;64303;53.118;9.044;2022-12-07T11:37:45;11.15;;;6.95;;
75689;SDS011;64303;53.118;9.044;2022-12-07T11:40:15;8.02;;;6.28;;
75689;SDS011;64303;53.118;9.044;2022-12-07T11:42:45;6.35;;;5.80;;
75689;SDS011;64303;53.118;9.044;2022-12-07T11:45:17;7.95;;;5.47;;
75689;SDS011;64303;53.118;9.044;2022-12-07T11:47:51;9.50;;;5.78;;
75689;SDS011;64303;53.118;9.044;2022-12-07T11:50:23;7.72;;;4.78;;
75689;SDS011;64303;53.118;9.044;2022-12-07T11:52:53;6.38;;;5.78;;
75689;SDS011;64303;53.118;9.044;2022-12-07T11:55:24;10.95;;;6.45;;
75689;SDS011;64303;53.118;9.044;2022-12-07T11:57:56;5.28;;;3.85;;
75689;SDS011;64303;53.118;9.044;2022-12-07T12:00:25;8.98;;;5.20;;
75689;SDS011;64303;53.118;9.044;2022-12-07T12:02:53;8.20;;;6.65;;
75689;SDS011;64303;53.118;9.044;2022-12-07T12:05:24;7.25;;;6.10;;
75689;SDS011;64303;53.118;9.044;2022-12-07T12:07:52;6.50;;;5.03;;
75689;SDS011;64303;53.118;9.044;2022-12-07T12:10:27;4.72;;;3.53;;
75689;SDS011;64303;53.118;9.044;2022-12-07T12:13:03;5.10;;;4.53;;
75689;SDS011;64303;53.118;9.044;2022-12-07T12:16:01;7.32;;;5.30;;
75689;SDS011;64303;53.118;9.044;2022-12-07T12:18:44;4.15;;;3.85;;
75689;SDS011;64303;53.118;9.044;2022-12-07T12:21:27;4.28;;;3.97;;
75689;SDS011;64303;53.118;9.044;2022-12-07T12:23:55;5.65;;;5.15;;
75689;SDS011;64303;53.118;9.044;2022-12-07T12:26:25;5.38;;;3.38;;
75689;SDS011;64303;53.118;9.044;2022-12-07T12:28:54;5.47;;;5.13;;
75689;SDS011;64303;53.118;9.044;2022-12-07T12:31:34;4.70;;;4.30;;
75689;SDS011;64303;53.118;9.044;2022-12-07T12:36:59;7.60;;;7.15;;
75689;SDS011;64303;53.118;9.044;2022-12-07T12:39:26;6.05;;;4.95;;
75689;SDS011;64303;53.118;9.044;2022-12-07T12:41:54;5.38;;;4.75;;
75689;SDS011;64303;53.118;9.044;2022-12-07T12:44:40;6.35;;;4.82;;
75689;SDS011;64303;53.118;9.044;2022-12-07T12:50:19;5.28;;;4.35;;
75689;SDS011;64303;53.118;9.044;2022-12-07T12:52:55;4.75;;;4.35;;
75689;SDS011;64303;53.118;9.044;2022-12-07T12:58:37;6.60;;;5.68;;
75689;SDS011;64303;53.118;9.044;2022-12-07T13:03:58;5.35;;;4.88;;
75689;SDS011;64303;53.118;9.044;2022-12-07T13:06:35;5.63;;;4.90;;
75689;SDS011;64303;53.118;9.044;2022-12-07T13:09:03;6.07;;;5.68;;
75689;SDS011;64303;53.118;9.044;2022-12-07T13:11:31;5.20;;;4.60;;
75689;SDS011;64303;53.118;9.044;2022-12-07T13:17:07;7.03;;;6.53;;
75689;SDS011;64303;53.118;9.044;2022-12-07T13:22:41;6.97;;;6.55;;
75689;SDS011;64303;53.118;9.044;2022-12-07T13:25:11;5.32;;;4.78;;
75689;SDS011;64303;53.118;9.044;2022-12-07T13:27:39;7.05;;;3.88;;
75689;SDS011;64303;53.118;9.044;2022-12-07T13:30:11;5.03;;;4.57;;
75689;SDS011;64303;53.118;9.044;2022-12-07T13:32:41;5.50;;;4.47;;
75689;SDS011;64303;53.118;9.044;2022-12-07T13:35:27;5.20;;;4.75;;
75689;SDS011;64303;53.118;9.044;2022-12-07T13:38:00;4.63;;;4.00;;
75689;SDS011;64303;53.118;9.044;2022-12-07T13:40:29;6.65;;;4.40;;
75689;SDS011;64303;53.118;9.044;2022-12-07T13:42:59;7.85;;;4.07;;
75689;SDS011;64303;53.118;9.044;2022-12-07T13:45:27;5.32;;;4.93;;
75689;SDS011;64303;53.118;9.044;2022-12-07T13:48:10;7.55;;;6.50;;
75689;SDS011;64303;53.118;9.044;2022-12-07T13:50:41;5.38;;;4.97;;
75689;SDS011;64303;53.118;9.044;2022-12-07T13:53:11;5.15;;;4.65;;
75689;SDS011;64303;53.118;9.044;2022-12-07T13:55:43;6.57;;;6.10;;
75689;SDS011;64303;53.118;9.044;2022-12-07T13:58:11;7.43;;;6.80;;
75689;SDS011;64303;53.118;9.044;2022-12-07T14:00:37;4.40;;;3.97;;
75689;SDS011;64303;53.118;9.044;2022-12-07T14:03:20;5.28;;;4.57;;
75689;SDS011;64303;53.118;9.044;2022-12-07T14:06:03;5.07;;;4.68;;
75689;SDS011;64303;53.118;9.044;2022-12-07T14:08:40;4.40;;;3.92;;
75689;SDS011;64303;53.118;9.044;2022-12-07T14:13:36;6.38;;;6.00;;
75689;SDS011;64303;53.118;9.044;2022-12-07T14:16:05;6.47;;;5.00;;
75689;SDS011;64303;53.118;9.044;2022-12-07T14:18:46;4.93;;;4.28;;
75689;SDS011;64303;53.118;9.044;2022-12-07T14:21:14;6.47;;;5.88;;
75689;SDS011;64303;53.118;9.044;2022-12-07T14:23:43;7.68;;;6.75;;
75689;SDS011;64303;53.118;9.044;2022-12-07T14:26:12;7.60;;;6.97;;
75689;SDS011;64303;53.118;9.044;2022-12-07T14:28:39;4.53;;;4.22;;
75689;SDS011;64303;53.118;9.044;2022-12-07T14:31:08;5.47;;;4.43;;
75689;SDS011;64303;53.118;9.044;2022-12-07T14:33:36;7.15;;;3.95;;
75689;SDS011;64303;53.118;9.044;2022-12-07T14:36:03;6.60;;;6.20;;
75689;SDS011;64303;53.118;9.044;2022-12-07T14:38:30;5.80;;;5.30;;
75689;SDS011;64303;53.118;9.044;2022-12-07T14:40:58;4.63;;;4.28;;
75689;SDS011;64303;53.118;9.044;2022-12-07T14:43:45;6.53;;;5.40;;
75689;SDS011;64303;53.118;9.044;2022-12-07T14:46:12;5.57;;;5.13;;
75689;SDS011;64303;53.118;9.044;2022-12-07T14:48:39;7.57;;;6.45;;
75689;SDS011;64303;53.118;9.044;2022-12-07T14:51:07;16.20;;;10.85;;
75689;SDS011;64303;53.118;9.044;2022-12-07T14:53:37;11.65;;;8.57;;
75689;SDS011;64303;53.118;9.044;2022-12-07T14:56:08;8.55;;;7.95;;
75689;SDS011;64303;53.118;9.044;2022-12-07T14:58:35;10.30;;;9.13;;
75689;SDS011;64303;53.118;9.044;2022-12-07T15:01:02;6.38;;;5.70;;
75689;SDS011;64303;53.118;9.044;2022-12-07T15:03:28;7.55;;;6.65;;
75689;SDS011;64303;53.118;9.044;2022-12-07T15:05:56;5.75;;;4.70;;
75689;SDS011;64303;53.118;9.044;2022-12-07T15:08:22;6.28;;;4.95;;
75689;SDS011;64303;53.118;9.044;2022-12-07T15:10:49;5.95;;;4.50;;
75689;SDS011;64303;53.118;9.044;2022-12-07T15:13:17;6.80;;;4.55;;
75689;SDS011;64303;53.118;9.044;2022-12-07T15:16:02;5.88;;;4.07;;
75689;SDS011;64303;53.118;9.044;2022-12-07T15:18:28;8.35;;;6.18;;
75689;SDS011;64303;53.118;9.044;2022-12-07T15:20:55;6.93;;;4.90;;
75689;SDS011;64303;53.118;9.044;2022-12-07T15:23:22;6.10;;;5.32;;